sensor_id;sensor_type;location;lat;lon;timestamp;P1;durP1;ratioP1;P2;durP2;ratioP2
43429;SDS011;29028;43.234;27.896;2022-11-15T05:01:47;10.45;;;7.15;;
43429;SDS011;29028;43.234;27.896;2022-11-15T05:02:11;10.55;;;7.35;;
43429;SDS011;29028;43.234;27.896;2022-11-15T05:02:31;9.05;;;6.53;;
43429;SDS011;29028;43.234;27.896;2022-11-15T05:03:08;9.48;;;7.70;;
43429;SDS011;29028;43.234;27.896;2022-11-15T05:03:48;7.35;;;6.10;;
43429;SDS011;29028;43.234;27.896;2022-11-15T05:04:27;7.63;;;6.00;;
43429;SDS011;29028;43.234;27.896;2022-11-15T05:04:47;7.63;;;5.93;;
43429;SDS011;29028;43.234;27.896;2022-11-15T05:05:08;6.20;;;5.18;;
43429;SDS011;29028;43.234;27.896;2022-11-15T05:05:29;6.05;;;4.70;;
43429;SDS011;29028;43.234;27.896;2022-11-15T05:05:51;6.80;;;5.45;;
43429;SDS011;29028;43.234;27.896;2022-11-15T05:06:12;7.27;;;5.57;;
43429;SDS011;29028;43.234;27.896;2022-11-15T05:06:33;6.60;;;5.00;;
43429;SDS011;29028;43.234;27.896;2022-11-15T05:06:53;6.50;;;5.07;;
43429;SDS011;29028;43.234;27.896;2022-11-15T05:07:14;7.82;;;5.68;;
43429;SDS011;29028;43.234;27.896;2022-11-15T05:07:36;6.90;;;5.30;;
43429;SDS011;29028;43.234;27.896;2022-11-15T05:07:57;7.35;;;5.40;;
43429;SDS011;29028;43.234;27.896;2022-11-15T05:08:18;6.50;;;5.10;;
43429;SDS011;29028;43.234;27.896;2022-11-15T05:08:39;6.47;;;5.20;;
43429;SDS011;29028;43.234;27.896;2022-11-15T05:09:00;7.10;;;5.47;;
43429;SDS011;29028;43.234;27.896;2022-11-15T05:09:21;6.85;;;5.32;;
43429;SDS011;29028;43.234;27.896;2022-11-15T05:09:42;7.13;;;5.90;;
43429;SDS011;29028;43.234;27.896;2022-11-15T05:10:04;7.00;;;5.68;;
43429;SDS011;29028;43.234;27.896;2022-11-15T05:10:25;6.57;;;5.47;;
43429;SDS011;29028;43.234;27.896;2022-11-15T05:10:46;6.95;;;5.57;;
43429;SDS011;29028;43.234;27.896;2022-11-15T05:11:08;8.60;;;5.40;;
43429;SDS011;29028;43.234;27.896;2022-11-15T05:11:28;7.40;;;5.63;;
43429;SDS011;29028;43.234;27.896;2022-11-15T05:11:50;7.00;;;5.75;;
43429;SDS011;29028;43.234;27.896;2022-11-15T05:12:12;6.93;;;5.40;;
43429;SDS011;29028;43.234;27.896;2022-11-15T05:12:32;7.40;;;5.25;;
43429;SDS011;29028;43.234;27.896;2022-11-15T05:12:53;7.35;;;5.60;;
43429;SDS011;29028;43.234;27.896;2022-11-15T05:13:15;7.30;;;5.57;;
43429;SDS011;29028;43.234;27.896;2022-11-15T05:13:36;7.78;;;5.75;;
43429;SDS011;29028;43.234;27.896;2022-11-15T05:13:57;7.75;;;5.80;;
43429;SDS011;29028;43.234;27.896;2022-11-15T05:14:18;7.50;;;5.70;;
43429;SDS011;29028;43.234;27.896;2022-11-15T05:14:39;7.93;;;5.47;;
43429;SDS011;29028;43.234;27.896;2022-11-15T05:15:00;7.40;;;5.55;;
43429;SDS011;29028;43.234;27.896;2022-11-15T05:15:21;7.10;;;5.70;;
43429;SDS011;29028;43.234;27.896;2022-11-15T05:15:42;7.25;;;5.63;;
43429;SDS011;29028;43.234;27.896;2022-11-15T05:16:04;8.00;;;5.72;;
43429;SDS011;29028;43.234;27.896;2022-11-15T05:16:25;7.32;;;5.53;;
43429;SDS011;29028;43.234;27.896;2022-11-15T05:16:47;7.20;;;5.65;;
43429;SDS011;29028;43.234;27.896;2022-11-15T05:17:09;8.15;;;5.97;;
43429;SDS011;29028;43.234;27.896;2022-11-15T05:17:30;9.40;;;6.22;;
43429;SDS011;29028;43.234;27.896;2022-11-15T05:17:51;7.70;;;5.90;;
43429;SDS011;29028;43.234;27.896;2022-11-15T05:18:17;9.05;;;6.60;;
43429;SDS011;29028;43.234;27.896;2022-11-15T05:18:38;8.30;;;6.55;;
43429;SDS011;29028;43.234;27.896;2022-11-15T05:19:00;8.32;;;6.32;;
43429;SDS011;29028;43.234;27.896;2022-11-15T05:19:21;8.77;;;6.30;;
43429;SDS011;29028;43.234;27.896;2022-11-15T05:19:42;8.40;;;6.28;;
43429;SDS011;29028;43.234;27.896;2022-11-15T05:20:05;8.43;;;6.00;;
43429;SDS011;29028;43.234;27.896;2022-11-15T05:20:26;8.20;;;6.45;;
43429;SDS011;29028;43.234;27.896;2022-11-15T05:20:47;8.00;;;6.45;;
43429;SDS011;29028;43.234;27.896;2022-11-15T05:21:08;8.68;;;6.60;;
43429;SDS011;29028;43.234;27.896;2022-11-15T05:21:32;8.80;;;6.53;;
43429;SDS011;29028;43.234;27.896;2022-11-15T05:21:54;8.27;;;6.50;;
43429;SDS011;29028;43.234;27.896;2022-11-15T05:22:14;7.95;;;6.28;;
43429;SDS011;29028;43.234;27.896;2022-11-15T05:22:35;7.93;;;6.07;;
43429;SDS011;29028;43.234;27.896;2022-11-15T05:22:56;9.85;;;6.28;;
43429;SDS011;29028;43.234;27.896;2022-11-15T05:23:18;8.88;;;6.40;;
43429;SDS011;29028;43.234;27.896;2022-11-15T05:23:40;9.40;;;6.60;;
43429;SDS011;29028;43.234;27.896;2022-11-15T05:24:01;9.93;;;6.13;;
43429;SDS011;29028;43.234;27.896;2022-11-15T05:24:22;8.30;;;5.80;;
43429;SDS011;29028;43.234;27.896;2022-11-15T05:24:44;8.68;;;5.97;;
43429;SDS011;29028;43.234;27.896;2022-11-15T05:25:05;8.68;;;6.43;;
43429;SDS011;29028;43.234;27.896;2022-11-15T05:25:27;8.93;;;6.47;;
43429;SDS011;29028;43.234;27.896;2022-11-15T05:25:48;7.88;;;6.00;;
43429;SDS011;29028;43.234;27.896;2022-11-15T05:26:09;8.27;;;6.10;;
43429;SDS011;29028;43.234;27.896;2022-11-15T05:26:30;8.90;;;6.30;;
43429;SDS011;29028;43.234;27.896;2022-11-15T05:26:55;8.48;;;6.32;;
43429;SDS011;29028;43.234;27.896;2022-11-15T05:27:16;8.95;;;6.40;;
43429;SDS011;29028;43.234;27.896;2022-11-15T05:27:37;10.00;;;6.60;;
43429;SDS011;29028;43.234;27.896;2022-11-15T05:27:58;10.25;;;6.70;;
43429;SDS011;29028;43.234;27.896;2022-11-15T05:28:19;9.48;;;6.60;;
43429;SDS011;29028;43.234;27.896;2022-11-15T05:28:41;8.63;;;6.50;;
43429;SDS011;29028;43.234;27.896;2022-11-15T05:29:02;8.73;;;6.55;;
43429;SDS011;29028;43.234;27.896;2022-11-15T05:29:23;8.37;;;6.23;;
43429;SDS011;29028;43.234;27.896;2022-11-15T05:29:44;8.85;;;6.50;;
43429;SDS011;29028;43.234;27.896;2022-11-15T05:30:06;9.05;;;6.10;;
43429;SDS011;29028;43.234;27.896;2022-11-15T05:30:28;9.80;;;6.53;;
43429;SDS011;29028;43.234;27.896;2022-11-15T05:30:50;9.90;;;6.45;;
43429;SDS011;29028;43.234;27.896;2022-11-15T05:31:12;9.18;;;6.60;;
43429;SDS011;29028;43.234;27.896;2022-11-15T05:31:36;8.90;;;6.50;;
43429;SDS011;29028;43.234;27.896;2022-11-15T05:32:03;9.48;;;6.68;;
43429;SDS011;29028;43.234;27.896;2022-11-15T05:32:25;8.90;;;6.22;;
43429;SDS011;29028;43.234;27.896;2022-11-15T05:32:49;9.43;;;6.28;;
43429;SDS011;29028;43.234;27.896;2022-11-15T05:33:11;9.68;;;6.63;;
43429;SDS011;29028;43.234;27.896;2022-11-15T05:33:32;10.88;;;7.10;;
43429;SDS011;29028;43.234;27.896;2022-11-15T05:33:54;10.40;;;6.97;;
43429;SDS011;29028;43.234;27.896;2022-11-15T05:34:16;9.32;;;6.85;;
43429;SDS011;29028;43.234;27.896;2022-11-15T05:34:39;9.90;;;6.75;;
43429;SDS011;29028;43.234;27.896;2022-11-15T05:35:00;9.68;;;6.80;;
43429;SDS011;29028;43.234;27.896;2022-11-15T05:35:22;9.20;;;6.30;;
43429;SDS011;29028;43.234;27.896;2022-11-15T05:35:51;10.88;;;6.72;;
43429;SDS011;29028;43.234;27.896;2022-11-15T05:36:20;10.18;;;6.63;;
43429;SDS011;29028;43.234;27.896;2022-11-15T05:36:49;9.10;;;6.90;;
43429;SDS011;29028;43.234;27.896;2022-11-15T05:37:11;9.32;;;6.60;;
43429;SDS011;29028;43.234;27.896;2022-11-15T05:37:33;9.57;;;6.65;;
43429;SDS011;29028;43.234;27.896;2022-11-15T05:37:54;9.77;;;7.05;;
43429;SDS011;29028;43.234;27.896;2022-11-15T05:38:15;9.13;;;7.05;;
43429;SDS011;29028;43.234;27.896;2022-11-15T05:38:35;10.35;;;7.13;;
43429;SDS011;29028;43.234;27.896;2022-11-15T05:38:58;12.27;;;7.22;;
43429;SDS011;29028;43.234;27.896;2022-11-15T05:39:19;11.33;;;7.10;;
43429;SDS011;29028;43.234;27.896;2022-11-15T05:39:40;9.48;;;7.00;;
43429;SDS011;29028;43.234;27.896;2022-11-15T05:40:02;9.40;;;6.80;;
43429;SDS011;29028;43.234;27.896;2022-11-15T05:40:25;9.35;;;6.78;;
43429;SDS011;29028;43.234;27.896;2022-11-15T05:40:46;10.68;;;7.07;;
43429;SDS011;29028;43.234;27.896;2022-11-15T05:41:07;11.50;;;7.13;;
43429;SDS011;29028;43.234;27.896;2022-11-15T05:41:30;11.15;;;6.65;;
43429;SDS011;29028;43.234;27.896;2022-11-15T05:41:56;12.50;;;6.87;;
43429;SDS011;29028;43.234;27.896;2022-11-15T05:42:20;9.95;;;6.57;;
43429;SDS011;29028;43.234;27.896;2022-11-15T05:42:41;9.95;;;6.75;;
43429;SDS011;29028;43.234;27.896;2022-11-15T05:43:03;9.95;;;6.20;;
43429;SDS011;29028;43.234;27.896;2022-11-15T05:43:25;9.88;;;6.70;;
43429;SDS011;29028;43.234;27.896;2022-11-15T05:43:47;9.40;;;6.80;;
43429;SDS011;29028;43.234;27.896;2022-11-15T05:44:13;12.32;;;8.38;;
43429;SDS011;29028;43.234;27.896;2022-11-15T05:44:38;13.63;;;8.75;;
43429;SDS011;29028;43.234;27.896;2022-11-15T05:45:00;13.40;;;9.13;;
43429;SDS011;29028;43.234;27.896;2022-11-15T05:45:23;13.27;;;9.15;;
43429;SDS011;29028;43.234;27.896;2022-11-15T05:45:47;12.57;;;8.23;;
43429;SDS011;29028;43.234;27.896;2022-11-15T05:46:08;13.80;;;8.60;;
43429;SDS011;29028;43.234;27.896;2022-11-15T05:46:31;14.07;;;9.70;;
43429;SDS011;29028;43.234;27.896;2022-11-15T05:46:53;11.77;;;8.65;;
43429;SDS011;29028;43.234;27.896;2022-11-15T05:47:18;11.23;;;7.80;;
43429;SDS011;29028;43.234;27.896;2022-11-15T05:47:44;11.38;;;8.02;;
43429;SDS011;29028;43.234;27.896;2022-11-15T05:48:09;15.07;;;11.43;;
43429;SDS011;29028;43.234;27.896;2022-11-15T05:48:31;20.95;;;16.13;;
43429;SDS011;29028;43.234;27.896;2022-11-15T05:48:54;19.52;;;12.75;;
43429;SDS011;29028;43.234;27.896;2022-11-15T05:49:17;16.50;;;9.70;;
43429;SDS011;29028;43.234;27.896;2022-11-15T05:49:43;19.92;;;14.98;;
43429;SDS011;29028;43.234;27.896;2022-11-15T05:50:06;18.80;;;14.25;;
43429;SDS011;29028;43.234;27.896;2022-11-15T05:50:27;15.02;;;10.90;;
43429;SDS011;29028;43.234;27.896;2022-11-15T05:50:51;14.13;;;10.00;;
43429;SDS011;29028;43.234;27.896;2022-11-15T05:51:14;14.98;;;11.57;;
43429;SDS011;29028;43.234;27.896;2022-11-15T05:51:37;21.52;;;16.65;;
43429;SDS011;29028;43.234;27.896;2022-11-15T05:51:59;21.15;;;16.80;;
43429;SDS011;29028;43.234;27.896;2022-11-15T05:52:24;17.80;;;13.65;;
43429;SDS011;29028;43.234;27.896;2022-11-15T05:52:50;20.42;;;15.85;;
43429;SDS011;29028;43.234;27.896;2022-11-15T05:53:12;21.15;;;17.25;;
43429;SDS011;29028;43.234;27.896;2022-11-15T05:53:36;22.02;;;17.75;;
43429;SDS011;29028;43.234;27.896;2022-11-15T05:54:01;18.77;;;15.48;;
43429;SDS011;29028;43.234;27.896;2022-11-15T05:54:22;21.83;;;17.42;;
43429;SDS011;29028;43.234;27.896;2022-11-15T05:54:45;18.75;;;14.48;;
43429;SDS011;29028;43.234;27.896;2022-11-15T05:55:06;15.82;;;12.05;;
43429;SDS011;29028;43.234;27.896;2022-11-15T05:55:30;16.63;;;12.88;;
43429;SDS011;29028;43.234;27.896;2022-11-15T05:55:51;22.73;;;17.58;;
43429;SDS011;29028;43.234;27.896;2022-11-15T05:56:12;23.92;;;18.58;;
43429;SDS011;29028;43.234;27.896;2022-11-15T05:56:34;23.05;;;18.55;;
43429;SDS011;29028;43.234;27.896;2022-11-15T05:56:55;22.48;;;17.40;;
43429;SDS011;29028;43.234;27.896;2022-11-15T05:57:16;20.17;;;16.47;;
43429;SDS011;29028;43.234;27.896;2022-11-15T05:57:37;20.85;;;17.00;;
43429;SDS011;29028;43.234;27.896;2022-11-15T05:57:58;18.17;;;13.07;;
43429;SDS011;29028;43.234;27.896;2022-11-15T05:58:20;16.50;;;11.95;;
43429;SDS011;29028;43.234;27.896;2022-11-15T05:58:42;15.10;;;11.77;;
43429;SDS011;29028;43.234;27.896;2022-11-15T05:59:03;14.05;;;10.60;;
43429;SDS011;29028;43.234;27.896;2022-11-15T05:59:25;13.82;;;10.05;;
43429;SDS011;29028;43.234;27.896;2022-11-15T05:59:48;14.95;;;10.50;;
43429;SDS011;29028;43.234;27.896;2022-11-15T06:00:10;13.85;;;10.45;;
43429;SDS011;29028;43.234;27.896;2022-11-15T06:00:32;14.25;;;10.40;;
43429;SDS011;29028;43.234;27.896;2022-11-15T06:00:53;13.20;;;9.65;;
43429;SDS011;29028;43.234;27.896;2022-11-15T06:01:15;12.85;;;9.60;;
43429;SDS011;29028;43.234;27.896;2022-11-15T06:01:37;12.68;;;9.73;;
43429;SDS011;29028;43.234;27.896;2022-11-15T06:01:59;14.05;;;9.70;;
43429;SDS011;29028;43.234;27.896;2022-11-15T06:02:21;13.60;;;9.77;;
43429;SDS011;29028;43.234;27.896;2022-11-15T06:02:43;12.70;;;9.65;;
43429;SDS011;29028;43.234;27.896;2022-11-15T06:03:04;12.38;;;9.05;;
43429;SDS011;29028;43.234;27.896;2022-11-15T06:03:25;12.27;;;8.93;;
43429;SDS011;29028;43.234;27.896;2022-11-15T06:03:46;12.73;;;8.55;;
43429;SDS011;29028;43.234;27.896;2022-11-15T06:04:08;11.18;;;8.40;;
43429;SDS011;29028;43.234;27.896;2022-11-15T06:04:28;12.07;;;8.70;;
43429;SDS011;29028;43.234;27.896;2022-11-15T06:04:49;12.00;;;8.75;;
43429;SDS011;29028;43.234;27.896;2022-11-15T06:05:10;11.25;;;8.30;;
43429;SDS011;29028;43.234;27.896;2022-11-15T06:05:32;11.65;;;8.50;;
43429;SDS011;29028;43.234;27.896;2022-11-15T06:05:53;11.23;;;8.40;;
43429;SDS011;29028;43.234;27.896;2022-11-15T06:06:14;12.13;;;8.70;;
43429;SDS011;29028;43.234;27.896;2022-11-15T06:06:35;11.02;;;8.32;;
43429;SDS011;29028;43.234;27.896;2022-11-15T06:06:57;11.07;;;8.32;;
43429;SDS011;29028;43.234;27.896;2022-11-15T06:07:19;12.40;;;8.95;;
43429;SDS011;29028;43.234;27.896;2022-11-15T06:07:39;13.18;;;9.95;;
43429;SDS011;29028;43.234;27.896;2022-11-15T06:08:00;13.40;;;9.95;;
43429;SDS011;29028;43.234;27.896;2022-11-15T06:08:22;12.20;;;9.10;;
43429;SDS011;29028;43.234;27.896;2022-11-15T06:08:43;12.47;;;9.53;;
43429;SDS011;29028;43.234;27.896;2022-11-15T06:09:04;12.37;;;9.63;;
43429;SDS011;29028;43.234;27.896;2022-11-15T06:09:24;13.27;;;9.88;;
43429;SDS011;29028;43.234;27.896;2022-11-15T06:09:46;13.23;;;9.70;;
43429;SDS011;29028;43.234;27.896;2022-11-15T06:10:08;11.73;;;9.45;;
43429;SDS011;29028;43.234;27.896;2022-11-15T06:10:29;11.73;;;8.95;;
43429;SDS011;29028;43.234;27.896;2022-11-15T06:10:50;11.10;;;8.57;;
43429;SDS011;29028;43.234;27.896;2022-11-15T06:11:11;10.80;;;7.72;;
43429;SDS011;29028;43.234;27.896;2022-11-15T06:11:32;10.55;;;7.32;;
43429;SDS011;29028;43.234;27.896;2022-11-15T06:11:53;9.93;;;7.25;;
43429;SDS011;29028;43.234;27.896;2022-11-15T06:12:14;9.70;;;7.03;;
43429;SDS011;29028;43.234;27.896;2022-11-15T06:12:36;9.60;;;7.00;;
43429;SDS011;29028;43.234;27.896;2022-11-15T06:12:57;9.43;;;7.22;;
43429;SDS011;29028;43.234;27.896;2022-11-15T06:13:18;10.20;;;7.63;;
43429;SDS011;29028;43.234;27.896;2022-11-15T06:13:39;10.05;;;7.28;;
43429;SDS011;29028;43.234;27.896;2022-11-15T06:14:01;9.98;;;7.38;;
43429;SDS011;29028;43.234;27.896;2022-11-15T06:14:22;9.63;;;7.50;;
43429;SDS011;29028;43.234;27.896;2022-11-15T06:14:43;9.75;;;7.55;;
43429;SDS011;29028;43.234;27.896;2022-11-15T06:15:04;11.40;;;7.85;;
43429;SDS011;29028;43.234;27.896;2022-11-15T06:15:26;9.75;;;7.78;;
43429;SDS011;29028;43.234;27.896;2022-11-15T06:15:47;10.32;;;7.45;;
43429;SDS011;29028;43.234;27.896;2022-11-15T06:16:08;11.02;;;7.75;;
43429;SDS011;29028;43.234;27.896;2022-11-15T06:16:29;9.65;;;7.03;;
43429;SDS011;29028;43.234;27.896;2022-11-15T06:16:51;9.60;;;6.78;;
43429;SDS011;29028;43.234;27.896;2022-11-15T06:17:11;9.63;;;7.00;;
43429;SDS011;29028;43.234;27.896;2022-11-15T06:17:34;9.10;;;6.97;;
43429;SDS011;29028;43.234;27.896;2022-11-15T06:17:55;8.77;;;6.60;;
43429;SDS011;29028;43.234;27.896;2022-11-15T06:18:18;9.77;;;7.13;;
43429;SDS011;29028;43.234;27.896;2022-11-15T06:18:39;9.63;;;6.95;;
43429;SDS011;29028;43.234;27.896;2022-11-15T06:19:00;9.20;;;6.85;;
43429;SDS011;29028;43.234;27.896;2022-11-15T06:19:21;9.60;;;6.60;;
43429;SDS011;29028;43.234;27.896;2022-11-15T06:19:42;10.20;;;6.70;;
43429;SDS011;29028;43.234;27.896;2022-11-15T06:20:03;10.80;;;6.47;;
43429;SDS011;29028;43.234;27.896;2022-11-15T06:20:25;11.00;;;6.50;;
43429;SDS011;29028;43.234;27.896;2022-11-15T06:20:46;10.45;;;6.57;;
43429;SDS011;29028;43.234;27.896;2022-11-15T06:21:08;9.52;;;6.63;;
43429;SDS011;29028;43.234;27.896;2022-11-15T06:21:29;8.80;;;6.20;;
43429;SDS011;29028;43.234;27.896;2022-11-15T06:21:50;9.70;;;6.03;;
43429;SDS011;29028;43.234;27.896;2022-11-15T06:22:11;10.05;;;6.30;;
43429;SDS011;29028;43.234;27.896;2022-11-15T06:22:32;9.73;;;6.15;;
43429;SDS011;29028;43.234;27.896;2022-11-15T06:22:56;10.67;;;6.47;;
43429;SDS011;29028;43.234;27.896;2022-11-15T06:23:18;8.40;;;6.38;;
43429;SDS011;29028;43.234;27.896;2022-11-15T06:23:38;8.30;;;6.22;;
43429;SDS011;29028;43.234;27.896;2022-11-15T06:24:00;8.80;;;6.07;;
43429;SDS011;29028;43.234;27.896;2022-11-15T06:24:21;9.53;;;6.47;;
43429;SDS011;29028;43.234;27.896;2022-11-15T06:24:42;8.50;;;6.05;;
43429;SDS011;29028;43.234;27.896;2022-11-15T06:25:04;8.35;;;6.03;;
43429;SDS011;29028;43.234;27.896;2022-11-15T06:25:26;8.27;;;6.32;;
43429;SDS011;29028;43.234;27.896;2022-11-15T06:25:48;8.82;;;6.25;;
43429;SDS011;29028;43.234;27.896;2022-11-15T06:26:08;9.23;;;6.07;;
43429;SDS011;29028;43.234;27.896;2022-11-15T06:26:29;9.02;;;6.20;;
43429;SDS011;29028;43.234;27.896;2022-11-15T06:26:51;9.02;;;6.60;;
43429;SDS011;29028;43.234;27.896;2022-11-15T06:27:12;10.13;;;6.53;;
43429;SDS011;29028;43.234;27.896;2022-11-15T06:27:33;9.98;;;6.72;;
43429;SDS011;29028;43.234;27.896;2022-11-15T06:27:55;9.57;;;6.68;;
43429;SDS011;29028;43.234;27.896;2022-11-15T06:28:18;8.25;;;6.25;;
43429;SDS011;29028;43.234;27.896;2022-11-15T06:28:38;9.38;;;6.65;;
43429;SDS011;29028;43.234;27.896;2022-11-15T06:28:59;11.07;;;6.78;;
43429;SDS011;29028;43.234;27.896;2022-11-15T06:29:20;9.25;;;6.70;;
43429;SDS011;29028;43.234;27.896;2022-11-15T06:29:42;9.45;;;6.80;;
43429;SDS011;29028;43.234;27.896;2022-11-15T06:30:03;9.68;;;6.45;;
43429;SDS011;29028;43.234;27.896;2022-11-15T06:30:25;10.65;;;6.10;;
43429;SDS011;29028;43.234;27.896;2022-11-15T06:30:47;8.38;;;6.32;;
43429;SDS011;29028;43.234;27.896;2022-11-15T06:31:09;8.60;;;6.55;;
43429;SDS011;29028;43.234;27.896;2022-11-15T06:31:31;8.38;;;6.50;;
43429;SDS011;29028;43.234;27.896;2022-11-15T06:31:54;10.02;;;7.00;;
43429;SDS011;29028;43.234;27.896;2022-11-15T06:32:15;10.07;;;6.97;;
43429;SDS011;29028;43.234;27.896;2022-11-15T06:32:38;8.18;;;6.55;;
43429;SDS011;29028;43.234;27.896;2022-11-15T06:32:59;9.57;;;6.50;;
43429;SDS011;29028;43.234;27.896;2022-11-15T06:33:21;9.57;;;6.68;;
43429;SDS011;29028;43.234;27.896;2022-11-15T06:33:43;9.68;;;6.22;;
43429;SDS011;29028;43.234;27.896;2022-11-15T06:34:04;9.18;;;6.13;;
43429;SDS011;29028;43.234;27.896;2022-11-15T06:34:25;9.80;;;6.50;;
43429;SDS011;29028;43.234;27.896;2022-11-15T06:34:46;10.05;;;6.20;;
43429;SDS011;29028;43.234;27.896;2022-11-15T06:35:08;10.45;;;6.57;;
43429;SDS011;29028;43.234;27.896;2022-11-15T06:35:29;10.35;;;6.97;;
43429;SDS011;29028;43.234;27.896;2022-11-15T06:35:52;9.27;;;6.35;;
43429;SDS011;29028;43.234;27.896;2022-11-15T06:36:14;9.77;;;6.40;;
43429;SDS011;29028;43.234;27.896;2022-11-15T06:36:37;9.50;;;7.07;;
43429;SDS011;29028;43.234;27.896;2022-11-15T06:36:58;10.57;;;6.97;;
43429;SDS011;29028;43.234;27.896;2022-11-15T06:37:19;10.13;;;6.90;;
43429;SDS011;29028;43.234;27.896;2022-11-15T06:37:40;10.30;;;7.15;;
43429;SDS011;29028;43.234;27.896;2022-11-15T06:38:02;10.05;;;6.72;;
43429;SDS011;29028;43.234;27.896;2022-11-15T06:38:24;9.68;;;6.30;;
43429;SDS011;29028;43.234;27.896;2022-11-15T06:38:46;9.90;;;6.53;;
43429;SDS011;29028;43.234;27.896;2022-11-15T06:39:07;9.57;;;6.57;;
43429;SDS011;29028;43.234;27.896;2022-11-15T06:39:28;9.75;;;6.78;;
43429;SDS011;29028;43.234;27.896;2022-11-15T06:39:48;9.40;;;6.63;;
43429;SDS011;29028;43.234;27.896;2022-11-15T06:40:11;10.27;;;6.82;;
43429;SDS011;29028;43.234;27.896;2022-11-15T06:40:33;9.30;;;6.60;;
43429;SDS011;29028;43.234;27.896;2022-11-15T06:40:54;11.30;;;6.68;;
43429;SDS011;29028;43.234;27.896;2022-11-15T06:41:15;9.95;;;6.63;;
43429;SDS011;29028;43.234;27.896;2022-11-15T06:41:38;8.82;;;6.32;;
43429;SDS011;29028;43.234;27.896;2022-11-15T06:41:58;9.80;;;6.50;;
43429;SDS011;29028;43.234;27.896;2022-11-15T06:42:19;9.90;;;6.70;;
43429;SDS011;29028;43.234;27.896;2022-11-15T06:42:40;10.18;;;7.05;;
43429;SDS011;29028;43.234;27.896;2022-11-15T06:43:02;11.10;;;6.93;;
43429;SDS011;29028;43.234;27.896;2022-11-15T06:43:24;10.00;;;6.35;;
43429;SDS011;29028;43.234;27.896;2022-11-15T06:43:45;9.70;;;6.68;;
43429;SDS011;29028;43.234;27.896;2022-11-15T06:44:06;10.00;;;6.83;;
43429;SDS011;29028;43.234;27.896;2022-11-15T06:44:28;9.43;;;6.45;;
43429;SDS011;29028;43.234;27.896;2022-11-15T06:44:49;9.38;;;6.32;;
43429;SDS011;29028;43.234;27.896;2022-11-15T06:45:10;8.60;;;6.45;;
43429;SDS011;29028;43.234;27.896;2022-11-15T06:45:31;9.63;;;6.95;;
43429;SDS011;29028;43.234;27.896;2022-11-15T06:45:53;10.80;;;7.63;;
43429;SDS011;29028;43.234;27.896;2022-11-15T06:46:14;9.45;;;6.95;;
43429;SDS011;29028;43.234;27.896;2022-11-15T06:46:34;8.88;;;6.78;;
43429;SDS011;29028;43.234;27.896;2022-11-15T06:46:55;9.50;;;6.75;;
43429;SDS011;29028;43.234;27.896;2022-11-15T06:47:17;9.30;;;7.05;;
43429;SDS011;29028;43.234;27.896;2022-11-15T06:47:45;8.90;;;6.60;;
43429;SDS011;29028;43.234;27.896;2022-11-15T06:48:06;9.15;;;7.05;;
43429;SDS011;29028;43.234;27.896;2022-11-15T06:48:27;9.75;;;7.22;;
43429;SDS011;29028;43.234;27.896;2022-11-15T06:48:50;9.40;;;6.63;;
43429;SDS011;29028;43.234;27.896;2022-11-15T06:49:11;9.13;;;6.50;;
43429;SDS011;29028;43.234;27.896;2022-11-15T06:49:31;8.13;;;6.15;;
43429;SDS011;29028;43.234;27.896;2022-11-15T06:49:52;8.55;;;6.15;;
43429;SDS011;29028;43.234;27.896;2022-11-15T06:50:13;8.52;;;6.18;;
43429;SDS011;29028;43.234;27.896;2022-11-15T06:50:35;7.95;;;6.28;;
43429;SDS011;29028;43.234;27.896;2022-11-15T06:50:57;8.43;;;6.07;;
43429;SDS011;29028;43.234;27.896;2022-11-15T06:51:18;8.98;;;6.45;;
43429;SDS011;29028;43.234;27.896;2022-11-15T06:51:39;8.70;;;6.28;;
43429;SDS011;29028;43.234;27.896;2022-11-15T06:52:01;9.07;;;6.40;;
43429;SDS011;29028;43.234;27.896;2022-11-15T06:52:22;11.38;;;6.40;;
43429;SDS011;29028;43.234;27.896;2022-11-15T06:52:43;9.05;;;6.63;;
43429;SDS011;29028;43.234;27.896;2022-11-15T06:53:04;8.13;;;6.13;;
43429;SDS011;29028;43.234;27.896;2022-11-15T06:53:26;9.13;;;6.20;;
43429;SDS011;29028;43.234;27.896;2022-11-15T06:53:47;9.65;;;6.45;;
43429;SDS011;29028;43.234;27.896;2022-11-15T06:54:08;15.20;;;7.13;;
43429;SDS011;29028;43.234;27.896;2022-11-15T06:54:29;14.43;;;7.13;;
43429;SDS011;29028;43.234;27.896;2022-11-15T06:54:51;11.13;;;6.88;;
43429;SDS011;29028;43.234;27.896;2022-11-15T06:55:12;10.07;;;6.63;;
43429;SDS011;29028;43.234;27.896;2022-11-15T06:55:33;9.77;;;6.70;;
43429;SDS011;29028;43.234;27.896;2022-11-15T06:55:56;11.70;;;7.33;;
43429;SDS011;29028;43.234;27.896;2022-11-15T06:56:19;9.20;;;6.95;;
43429;SDS011;29028;43.234;27.896;2022-11-15T06:56:40;10.82;;;7.68;;
43429;SDS011;29028;43.234;27.896;2022-11-15T06:57:01;10.35;;;7.45;;
43429;SDS011;29028;43.234;27.896;2022-11-15T06:57:24;8.95;;;6.70;;
43429;SDS011;29028;43.234;27.896;2022-11-15T06:57:46;10.10;;;7.00;;
43429;SDS011;29028;43.234;27.896;2022-11-15T06:58:07;10.15;;;6.82;;
43429;SDS011;29028;43.234;27.896;2022-11-15T06:58:28;10.13;;;7.05;;
43429;SDS011;29028;43.234;27.896;2022-11-15T06:58:49;11.05;;;7.22;;
43429;SDS011;29028;43.234;27.896;2022-11-15T06:59:11;10.82;;;7.28;;
43429;SDS011;29028;43.234;27.896;2022-11-15T06:59:32;9.85;;;6.95;;
43429;SDS011;29028;43.234;27.896;2022-11-15T06:59:53;10.32;;;7.13;;
43429;SDS011;29028;43.234;27.896;2022-11-15T07:00:14;10.90;;;7.43;;
43429;SDS011;29028;43.234;27.896;2022-11-15T07:00:37;13.70;;;6.82;;
43429;SDS011;29028;43.234;27.896;2022-11-15T07:00:59;11.38;;;6.93;;
43429;SDS011;29028;43.234;27.896;2022-11-15T07:01:20;9.57;;;7.20;;
43429;SDS011;29028;43.234;27.896;2022-11-15T07:01:42;9.38;;;6.80;;
43429;SDS011;29028;43.234;27.896;2022-11-15T07:02:03;10.02;;;6.82;;
43429;SDS011;29028;43.234;27.896;2022-11-15T07:02:24;10.75;;;6.80;;
43429;SDS011;29028;43.234;27.896;2022-11-15T07:02:46;10.20;;;6.63;;
43429;SDS011;29028;43.234;27.896;2022-11-15T07:03:08;8.75;;;6.10;;
43429;SDS011;29028;43.234;27.896;2022-11-15T07:03:29;8.05;;;5.70;;
43429;SDS011;29028;43.234;27.896;2022-11-15T07:03:50;8.48;;;5.70;;
43429;SDS011;29028;43.234;27.896;2022-11-15T07:04:11;8.32;;;5.97;;
43429;SDS011;29028;43.234;27.896;2022-11-15T07:04:33;7.80;;;6.38;;
43429;SDS011;29028;43.234;27.896;2022-11-15T07:04:56;8.27;;;6.13;;
43429;SDS011;29028;43.234;27.896;2022-11-15T07:05:17;7.78;;;5.82;;
43429;SDS011;29028;43.234;27.896;2022-11-15T07:05:37;8.02;;;5.90;;
43429;SDS011;29028;43.234;27.896;2022-11-15T07:05:59;9.85;;;6.40;;
43429;SDS011;29028;43.234;27.896;2022-11-15T07:06:20;8.80;;;6.43;;
43429;SDS011;29028;43.234;27.896;2022-11-15T07:06:41;9.65;;;6.45;;
43429;SDS011;29028;43.234;27.896;2022-11-15T07:07:03;8.40;;;5.93;;
43429;SDS011;29028;43.234;27.896;2022-11-15T07:07:23;7.97;;;5.75;;
43429;SDS011;29028;43.234;27.896;2022-11-15T07:07:50;8.75;;;6.57;;
43429;SDS011;29028;43.234;27.896;2022-11-15T07:08:12;9.20;;;7.00;;
43429;SDS011;29028;43.234;27.896;2022-11-15T07:08:34;8.07;;;6.38;;
43429;SDS011;29028;43.234;27.896;2022-11-15T07:08:55;9.00;;;5.90;;
43429;SDS011;29028;43.234;27.896;2022-11-15T07:09:16;7.97;;;5.97;;
43429;SDS011;29028;43.234;27.896;2022-11-15T07:09:38;8.80;;;5.72;;
43429;SDS011;29028;43.234;27.896;2022-11-15T07:09:59;9.25;;;5.55;;
43429;SDS011;29028;43.234;27.896;2022-11-15T07:10:20;8.80;;;5.38;;
43429;SDS011;29028;43.234;27.896;2022-11-15T07:10:41;10.50;;;5.63;;